createdAt,value
2023-03-22T06:03:06.667Z,23.36
2023-03-22T06:31:07.611Z,23.30
2023-03-22T06:55:09.042Z,23.41
2023-03-22T07:09:08.296Z,23.39
2023-03-22T07:10:08.313Z,23.39
2023-03-22T07:12:09.359Z,23.36
2023-03-22T07:13:09.385Z,23.36
2023-03-22T07:14:09.414Z,23.35
2023-03-22T07:16:09.530Z,23.38
2023-03-22T07:17:08.483Z,23.35
2023-03-22T07:18:09.500Z,23.36
2023-03-22T07:19:09.522Z,23.35
2023-03-22T07:20:09.555Z,23.35
2023-03-22T07:22:08.643Z,23.33
2023-03-22T07:24:08.689Z,23.35
2023-03-22T07:25:09.728Z,23.30
2023-03-22T07:27:09.803Z,23.30
2023-03-22T07:28:08.851Z,23.32
2023-03-22T07:29:09.884Z,23.33
2023-03-22T07:31:09.954Z,23.33
2023-03-22T07:33:10.294Z,23.35
2023-03-22T07:34:10.036Z,23.33
2023-03-22T07:49:10.349Z,23.41
2023-03-22T07:50:10.370Z,23.42
2023-03-22T07:51:10.399Z,23.45
2023-03-22T07:58:10.467Z,23.43
2023-03-22T07:59:10.527Z,23.41
2023-03-22T08:01:09.484Z,23.42
2023-03-22T08:12:10.712Z,23.39
2023-03-22T08:25:10.057Z,23.38
2023-03-22T08:26:10.091Z,23.36
2023-03-22T08:27:11.154Z,23.36
2023-03-22T08:28:11.157Z,23.33
2023-03-22T08:29:11.188Z,23.35
2023-03-22T08:30:11.209Z,23.38
2023-03-22T08:31:13.768Z,23.33
2023-03-22T08:33:11.217Z,23.35
2023-03-22T08:35:11.221Z,23.38
2023-03-22T08:36:11.227Z,23.36
2023-03-22T08:37:11.205Z,23.38
2023-03-22T08:38:10.181Z,23.38
2023-03-22T08:39:11.186Z,23.38
2023-03-22T08:40:11.195Z,23.39
2023-03-22T08:41:11.173Z,23.38
2023-03-22T08:43:10.197Z,23.35
2023-03-22T08:44:11.150Z,23.35
2023-03-22T08:46:11.330Z,23.36
2023-03-22T08:53:11.106Z,23.38
2023-03-22T08:55:11.074Z,23.12
2023-03-22T08:56:10.065Z,23.00
2023-03-22T08:59:10.100Z,23.26
2023-03-22T09:02:11.123Z,23.43
2023-03-22T09:03:10.029Z,23.50
2023-03-22T09:05:11.016Z,23.59
2023-03-22T09:08:18.263Z,23.73
2023-03-22T09:09:10.996Z,23.80
2023-03-22T09:10:10.987Z,23.80
2023-03-22T09:15:10.948Z,23.85
2023-03-22T09:16:10.979Z,23.84
2023-03-22T09:18:10.923Z,23.61
2023-03-22T09:19:10.921Z,23.71
2023-03-22T09:20:13.148Z,23.78
2023-03-22T09:21:09.920Z,23.84
2023-03-22T09:22:10.901Z,23.91
2023-03-22T09:23:10.915Z,23.91
2023-03-22T09:25:12.638Z,23.88
2023-03-22T09:26:10.904Z,23.91
2023-03-22T09:27:09.867Z,23.94
2023-03-22T09:28:09.976Z,23.92
2023-03-22T09:29:10.842Z,23.88
2023-03-22T09:30:10.845Z,23.88
2023-03-22T09:32:10.832Z,23.94
2023-03-22T09:33:10.830Z,24.00
2023-03-22T09:34:10.826Z,24.00
2023-03-22T09:35:10.802Z,24.02
2023-03-22T09:36:10.831Z,24.05
2023-03-22T09:37:10.802Z,23.70
2023-03-22T09:39:10.776Z,23.81
2023-03-22T09:40:09.791Z,23.67
2023-03-22T09:41:10.775Z,23.66
2023-03-22T09:42:10.755Z,23.78
2023-03-22T09:43:10.733Z,23.80
2023-03-22T09:44:10.737Z,23.85
2023-03-22T09:45:09.725Z,23.88
2023-03-22T09:46:10.868Z,23.84
2023-03-22T09:47:10.753Z,23.83
2023-03-22T09:48:10.772Z,23.92
2023-03-22T09:49:10.721Z,23.78
2023-03-22T09:50:10.693Z,23.85
2023-03-22T09:51:10.755Z,23.83
2023-03-22T09:52:10.730Z,23.84
2023-03-22T09:53:10.670Z,23.84
2023-03-22T09:54:10.700Z,23.85
2023-03-22T09:55:10.666Z,23.85
2023-03-22T09:56:10.691Z,23.84
2023-03-22T09:57:10.802Z,23.83
2023-03-22T09:58:10.665Z,23.81
2023-03-22T09:59:10.636Z,23.78
2023-03-22T10:00:11.379Z,23.81
2023-03-22T10:01:10.841Z,23.80
2023-03-22T10:02:10.945Z,23.77
2023-03-22T10:03:10.822Z,23.78
2023-03-22T10:04:10.887Z,23.77
2023-03-22T10:05:10.877Z,23.76
2023-03-22T10:06:10.941Z,23.76
2023-03-22T10:07:10.910Z,23.71
2023-03-22T10:08:10.936Z,23.73
2023-03-22T10:09:09.970Z,23.73
2023-03-22T10:10:10.962Z,23.70
2023-03-22T10:11:09.970Z,23.70
2023-03-22T10:12:11.000Z,23.70
2023-03-22T10:13:09.976Z,23.71
2023-03-22T10:14:09.957Z,23.71
2023-03-22T10:15:10.985Z,23.70
2023-03-22T10:16:11.024Z,23.70
2023-03-22T10:17:10.971Z,23.71
2023-03-22T10:18:10.965Z,23.67
2023-03-22T10:19:11.010Z,23.70
2023-03-22T10:22:10.978Z,23.66
2023-03-22T10:23:10.981Z,23.67
2023-03-22T10:25:10.974Z,23.64
2023-03-22T10:26:09.993Z,23.60
2023-03-22T10:27:12.845Z,23.59
2023-03-22T10:28:11.006Z,23.59
2023-03-22T10:29:10.970Z,23.57
2023-03-22T10:30:10.973Z,23.57
2023-03-22T10:31:09.986Z,23.54
2023-03-22T10:32:10.963Z,23.52
2023-03-22T10:33:10.957Z,23.49
2023-03-22T10:34:09.983Z,23.49
2023-03-22T10:35:10.992Z,23.48
2023-03-22T10:36:09.936Z,23.46
2023-03-22T10:38:10.922Z,23.45
2023-03-22T10:40:10.966Z,23.42
2023-03-22T10:41:10.975Z,23.42
2023-03-22T10:43:10.885Z,23.42
2023-03-22T10:45:10.872Z,23.35
2023-03-22T10:51:10.852Z,23.30
2023-03-22T10:58:09.877Z,22.98
2023-03-22T11:47:12.345Z,23.48
2023-03-22T11:51:36.171Z,23.49
2023-03-22T11:52:35.976Z,23.48
2023-03-22T11:53:36.999Z,23.45
2023-03-22T11:54:36.985Z,23.42
2023-03-22T11:55:36.979Z,23.56
2023-03-22T11:56:36.979Z,23.57
2023-03-22T11:57:37.157Z,23.57
2023-03-22T11:58:36.928Z,23.48
2023-03-22T11:59:36.942Z,23.29
2023-03-22T12:00:36.935Z,23.00
2023-03-22T12:01:36.926Z,23.07
2023-03-22T12:02:37.112Z,23.10
2023-03-22T12:03:38.954Z,23.08
2023-03-22T12:04:36.935Z,22.94
2023-03-22T12:05:36.890Z,23.08
2023-03-22T12:06:36.966Z,22.98
2023-03-22T12:07:36.899Z,23.07
2023-03-22T12:08:36.896Z,23.12
2023-03-22T12:09:35.970Z,23.19
2023-03-22T12:10:36.896Z,23.26
2023-03-22T12:11:36.912Z,23.26
2023-03-22T12:12:36.873Z,23.23
2023-03-22T12:13:36.851Z,23.22
2023-03-22T12:14:36.850Z,23.28
2023-03-22T12:15:36.953Z,23.26
2023-03-22T12:16:36.867Z,23.30
2023-03-22T12:17:36.906Z,23.38
2023-03-22T12:18:36.818Z,23.32
2023-03-22T12:19:35.855Z,23.33
2023-03-22T12:20:36.803Z,23.41
2023-03-22T12:21:35.790Z,23.42
2023-03-22T12:22:36.802Z,23.39
2023-03-22T12:23:36.823Z,23.48
2023-03-22T12:24:35.778Z,23.48
2023-03-22T12:25:36.790Z,23.45
2023-03-22T12:26:36.800Z,23.26
2023-03-22T12:27:36.756Z,23.42
2023-03-22T12:28:36.751Z,23.42
2023-03-22T12:29:36.749Z,23.38
2023-03-22T12:30:36.755Z,23.30
2023-03-22T12:32:36.831Z,23.28
2023-03-22T12:33:36.717Z,23.32
2023-03-22T12:34:36.716Z,23.39
2023-03-22T12:35:36.713Z,23.43
2023-03-22T12:36:36.742Z,23.45
2023-03-22T12:37:37.196Z,23.43
2023-03-22T12:38:36.680Z,23.45
2023-03-22T12:39:36.792Z,23.41
2023-03-22T12:40:36.784Z,23.43
2023-03-22T12:41:36.854Z,23.43
2023-03-22T12:42:40.590Z,23.39
2023-03-22T12:43:36.896Z,23.42
2023-03-22T12:44:35.879Z,23.42
2023-03-22T12:45:36.907Z,23.39
2023-03-22T12:46:36.920Z,23.32
2023-03-22T12:47:36.921Z,23.41
2023-03-22T12:48:36.993Z,23.38
2023-03-22T12:49:35.850Z,23.38
2023-03-22T12:50:36.847Z,23.38
2023-03-22T12:51:36.848Z,23.36
2023-03-22T12:52:45.191Z,23.35
2023-03-22T12:53:36.825Z,23.36
2023-03-22T12:54:35.812Z,23.35
2023-03-22T12:55:35.808Z,23.32
2023-03-22T12:56:36.827Z,23.36
2023-03-22T12:57:36.793Z,23.33
2023-03-22T12:58:36.861Z,23.35
2023-03-22T12:59:36.770Z,23.33
2023-03-22T13:00:36.849Z,23.35
2023-03-22T13:01:36.917Z,23.30
2023-03-22T13:02:36.893Z,23.33
2023-03-22T13:03:36.857Z,23.32
2023-03-22T13:04:36.784Z,23.33
2023-03-22T13:05:35.748Z,23.33
2023-03-22T13:06:36.734Z,23.29
2023-03-22T13:07:35.722Z,23.30
2023-03-22T13:08:35.732Z,23.30
2023-03-22T13:09:36.700Z,23.30
2023-03-22T13:10:35.780Z,23.29
2023-03-22T13:11:36.747Z,23.29
2023-03-22T13:12:36.702Z,23.29
2023-03-22T13:13:36.671Z,23.28
2023-03-22T13:14:36.708Z,23.28
2023-03-22T13:15:41.878Z,23.29
2023-03-22T13:16:36.707Z,23.29
2023-03-22T13:17:36.765Z,23.28
2023-03-22T13:18:36.664Z,23.30
2023-03-22T13:19:35.647Z,23.28
2023-03-22T13:20:36.678Z,23.28
2023-03-22T13:21:36.628Z,23.29
2023-03-22T13:22:35.625Z,23.26
2023-03-22T13:23:35.613Z,23.28
2023-03-22T13:24:35.626Z,23.25
2023-03-22T13:25:36.610Z,23.25
2023-03-22T13:26:35.613Z,23.26
2023-03-22T13:27:36.652Z,23.25
2023-03-22T13:28:36.581Z,23.26
2023-03-22T13:29:36.625Z,23.23
2023-03-22T13:30:35.612Z,23.25
2023-03-22T13:31:36.616Z,23.25
2023-03-22T13:32:35.598Z,23.25
2023-03-22T13:33:36.579Z,23.22
2023-03-22T13:34:36.549Z,23.23
2023-03-22T13:35:36.626Z,23.22
2023-03-22T13:36:36.525Z,23.25
2023-03-22T13:37:36.532Z,23.23
2023-03-22T13:38:36.523Z,23.23
2023-03-22T13:39:36.550Z,23.22
2023-03-22T13:40:36.559Z,23.22
2023-03-22T13:41:36.525Z,23.23
2023-03-22T13:42:36.500Z,23.23
2023-03-22T13:43:36.482Z,23.22
2023-03-22T13:44:36.481Z,23.22
2023-03-22T13:45:35.471Z,23.22
2023-03-22T13:46:36.565Z,23.21
2023-03-22T13:47:36.552Z,23.22
2023-03-22T13:48:36.584Z,23.22
2023-03-22T13:49:36.448Z,23.21
2023-03-22T13:50:36.434Z,23.19
2023-03-22T13:51:36.463Z,23.19
2023-03-22T13:52:36.420Z,23.18
2023-03-22T13:53:36.405Z,23.18
2023-03-22T13:54:36.410Z,23.19
2023-03-22T13:55:36.468Z,23.18
2023-03-22T13:56:36.402Z,23.19
2023-03-22T13:57:36.399Z,23.18
2023-03-22T13:58:36.550Z,23.19
2023-03-22T13:59:36.368Z,23.17
2023-03-22T14:00:36.391Z,23.18
2023-03-22T14:01:36.448Z,23.18
2023-03-22T14:02:36.464Z,23.17
2023-03-22T14:03:36.510Z,23.18
2023-03-22T14:04:36.381Z,23.15
2023-03-22T14:05:36.443Z,23.15
2023-03-22T14:06:36.403Z,23.15
2023-03-22T14:07:35.469Z,23.15
2023-03-22T14:08:36.498Z,23.17
2023-03-22T14:09:36.520Z,23.18
2023-03-22T14:10:36.614Z,23.17
2023-03-22T14:11:35.601Z,23.15
2023-03-22T14:12:36.662Z,23.15
2023-03-22T14:13:35.690Z,23.15
2023-03-22T14:14:36.718Z,23.15
2023-03-22T14:15:36.836Z,23.14
2023-03-22T14:16:36.861Z,23.15
2023-03-22T14:17:35.917Z,23.15
2023-03-22T14:18:36.960Z,23.14
2023-03-22T14:19:36.916Z,23.15
2023-03-22T14:20:36.951Z,23.14
2023-03-22T14:21:37.008Z,23.14
2023-03-22T14:47:36.379Z,23.08
2023-03-22T14:48:36.348Z,23.11
2023-03-22T14:49:36.327Z,23.10
2023-03-22T14:50:37.319Z,23.10
2023-03-22T14:51:36.309Z,23.07
2023-03-22T14:52:37.316Z,23.08
2023-03-22T14:54:36.305Z,23.07
2023-03-22T14:55:37.289Z,23.08
2023-03-22T14:56:37.282Z,23.05
2023-03-22T14:58:36.257Z,23.05
2023-03-22T14:59:37.265Z,23.07
2023-03-22T15:01:36.303Z,23.08
2023-03-22T15:02:37.315Z,23.08
2023-03-22T15:04:36.301Z,23.07
2023-03-22T15:05:37.338Z,23.10
2023-03-22T15:06:37.399Z,23.08
2023-03-22T15:07:37.443Z,23.08
2023-03-22T15:08:37.481Z,23.07
2023-03-22T15:09:37.534Z,23.05
2023-03-22T15:10:37.570Z,23.05
2023-03-22T15:11:37.655Z,23.07
2023-03-22T15:15:36.761Z,23.05
2023-03-22T15:16:37.975Z,23.07
2023-03-22T15:17:39.093Z,23.07
2023-03-22T15:18:37.892Z,23.07
2023-03-22T15:19:37.894Z,23.05
2023-03-22T15:21:36.819Z,23.05
2023-03-22T15:22:37.827Z,23.05
2023-03-22T15:23:38.892Z,23.05
2023-03-22T15:24:37.823Z,23.05
2023-03-22T15:25:37.903Z,23.07
2023-03-22T15:27:36.790Z,23.05
2023-03-22T15:30:36.771Z,23.05
2023-03-22T15:31:37.806Z,23.07
2023-03-22T15:35:37.838Z,23.08
2023-03-22T15:36:36.778Z,23.05
2023-03-22T15:37:37.730Z,23.07
2023-03-22T15:38:46.613Z,23.05
2023-03-22T15:40:36.735Z,23.07
2023-03-22T15:42:36.767Z,23.05
2023-03-22T15:44:36.703Z,23.05
2023-03-22T15:45:37.737Z,23.05
2023-03-22T15:46:37.687Z,23.05
2023-03-22T15:47:39.195Z,23.08
2023-03-22T15:48:37.685Z,23.05
2023-03-22T15:49:37.666Z,23.07
2023-03-22T15:51:36.649Z,23.08
2023-03-22T15:52:37.668Z,23.07
2023-03-22T15:53:37.649Z,23.08
2023-03-22T15:55:36.620Z,23.07
2023-03-22T15:56:40.311Z,23.05
2023-03-22T15:57:37.616Z,23.08
2023-03-22T15:58:37.687Z,23.08
2023-03-22T15:59:36.611Z,23.07
2023-03-22T16:03:37.493Z,23.08
2023-03-22T16:04:37.625Z,23.05
2023-03-22T16:08:36.556Z,23.07
2023-03-22T16:09:37.536Z,23.08
2023-03-22T16:11:36.513Z,23.05
2023-03-22T16:12:37.548Z,23.05
2023-03-22T16:14:38.338Z,23.05
2023-03-22T16:15:37.569Z,23.02
2023-03-22T16:18:36.588Z,23.04
2023-03-22T16:19:36.619Z,23.02
2023-03-22T16:20:37.710Z,23.04
2023-03-22T16:21:37.759Z,23.07
2023-03-22T16:22:36.794Z,23.05
2023-03-22T16:23:37.807Z,23.02
2023-03-22T16:24:37.858Z,23.01
2023-03-22T16:25:39.102Z,23.04
2023-03-22T16:26:36.898Z,23.02
2023-03-22T16:27:37.897Z,23.04
2023-03-22T16:29:36.869Z,23.00
